createdAt,value
2018-10-01T00:00:40.606Z,8.95
2018-10-01T00:03:09.053Z,8.45
2018-10-01T00:05:37.495Z,9.20
2018-10-01T00:08:06.229Z,8.98
2018-10-01T00:10:34.658Z,9.18
2018-10-01T00:13:03.117Z,9.18
2018-10-01T00:15:31.589Z,10.78
2018-10-01T00:18:00.564Z,11.03
2018-10-01T00:20:34.368Z,9.40
2018-10-01T00:23:03.052Z,10.32
2018-10-01T00:25:31.465Z,10.45
2018-10-01T00:27:59.917Z,11.00
2018-10-01T00:30:28.358Z,11.65
2018-10-01T00:32:56.809Z,11.20
2018-10-01T00:35:24.928Z,10.48
2018-10-01T00:37:53.489Z,11.28
2018-10-01T00:40:21.901Z,11.43
2018-10-01T00:42:50.360Z,11.00
2018-10-01T00:45:18.792Z,13.60
2018-10-01T00:47:47.254Z,12.10
2018-10-01T00:50:15.378Z,13.18
2018-10-01T00:52:43.898Z,12.60
2018-10-01T00:55:12.319Z,12.35
2018-10-01T00:57:40.800Z,11.68
2018-10-01T01:00:09.276Z,12.47
2018-10-01T01:02:37.702Z,12.13
2018-10-01T01:05:05.877Z,12.70
2018-10-01T01:07:34.338Z,12.93
2018-10-01T01:10:02.796Z,12.58
2018-10-01T01:12:31.230Z,13.78
2018-10-01T01:14:59.728Z,15.68
2018-10-01T01:17:28.185Z,14.28
2018-10-01T01:19:56.620Z,13.90
2018-10-01T01:22:25.032Z,15.05
2018-10-01T01:24:53.180Z,15.63
2018-10-01T01:27:21.315Z,13.28
2018-10-01T01:29:49.833Z,14.93
2018-10-01T01:32:18.259Z,13.98
2018-10-01T01:34:46.737Z,13.58
2018-10-01T01:37:15.212Z,14.50
2018-10-01T01:39:43.704Z,12.95
2018-10-01T01:42:12.178Z,12.65
2018-10-01T01:44:40.613Z,12.15
2018-10-01T01:47:09.142Z,13.05
2018-10-01T01:49:37.618Z,13.28
2018-10-01T01:52:06.100Z,13.43
2018-10-01T01:54:34.540Z,14.28
2018-10-01T01:57:02.988Z,13.68
2018-10-01T01:59:31.431Z,15.20
2018-10-01T02:01:59.857Z,15.10
2018-10-01T02:04:28.293Z,15.23
2018-10-01T02:06:56.876Z,15.50
2018-10-01T02:09:25.329Z,15.28
2018-10-01T02:11:53.734Z,15.80
2018-10-01T02:14:22.189Z,16.75
2018-10-01T02:16:50.673Z,16.12
2018-10-01T02:19:19.124Z,15.70
2018-10-01T02:21:47.566Z,15.25
2018-10-01T02:24:16.010Z,15.48
2018-10-01T02:26:44.457Z,16.95
2018-10-01T02:29:12.900Z,16.50
2018-10-01T02:31:40.998Z,16.62
2018-10-01T02:34:09.497Z,16.60
2018-10-01T02:36:37.981Z,15.68
2018-10-01T02:39:09.692Z,16.60
2018-10-01T02:41:38.120Z,15.55
2018-10-01T02:44:06.696Z,15.83
2018-10-01T02:46:35.178Z,16.60
2018-10-01T02:49:03.665Z,16.02
2018-10-01T02:51:33.842Z,16.15
2018-10-01T02:54:07.413Z,17.17
2018-10-01T02:56:35.858Z,14.73
2018-10-01T02:59:03.998Z,17.12
2018-10-01T03:01:32.453Z,17.15
2018-10-01T03:04:00.892Z,18.25
2018-10-01T03:06:29.329Z,17.40
2018-10-01T03:08:57.756Z,16.60
2018-10-01T03:11:26.220Z,18.65
2018-10-01T03:13:54.665Z,17.42
2018-10-01T03:16:23.132Z,17.85
2018-10-01T03:22:11.961Z,18.75
2018-10-01T03:24:40.362Z,19.50
2018-10-01T03:27:08.814Z,18.82
2018-10-01T03:29:36.953Z,19.48
2018-10-01T03:32:05.385Z,18.35
2018-10-01T03:34:33.781Z,19.17
2018-10-01T03:37:02.257Z,18.65
2018-10-01T03:39:30.670Z,20.77
2018-10-01T03:41:59.109Z,18.17
2018-10-01T03:44:27.597Z,19.45
2018-10-01T03:46:56.033Z,19.82
2018-10-01T03:49:24.729Z,19.65
2018-10-01T03:51:53.202Z,20.45
2018-10-01T03:54:21.610Z,19.17
2018-10-01T03:56:50.080Z,18.05
2018-10-01T03:59:18.495Z,17.70
2018-10-01T04:01:46.935Z,17.65
2018-10-01T04:04:15.345Z,18.60
2018-10-01T04:06:43.782Z,18.70
2018-10-01T04:09:12.204Z,18.30
2018-10-01T04:11:40.665Z,17.87
2018-10-01T04:14:09.109Z,16.80
2018-10-01T04:16:37.605Z,18.62
2018-10-01T04:19:06.076Z,18.85
2018-10-01T04:21:34.548Z,17.20
2018-10-01T04:24:03.502Z,20.10
2018-10-01T04:26:31.986Z,18.48
2018-10-01T04:29:00.425Z,18.92
2018-10-01T04:31:28.877Z,18.27
2018-10-01T04:33:57.286Z,18.62
2018-10-01T04:36:25.737Z,18.48
2018-10-01T04:38:54.162Z,18.17
2018-10-01T04:41:22.688Z,19.15
2018-10-01T04:43:51.115Z,16.85
2018-10-01T04:46:19.578Z,18.82
2018-10-01T04:48:48.024Z,17.52
2018-10-01T04:51:16.460Z,15.83
2018-10-01T04:53:44.900Z,17.00
2018-10-01T04:56:13.326Z,15.50
2018-10-01T04:58:41.837Z,15.43
2018-10-01T05:01:10.246Z,15.65
2018-10-01T05:03:38.697Z,14.73
2018-10-01T05:06:07.732Z,12.65
2018-10-01T05:08:36.165Z,11.63
2018-10-01T05:11:04.737Z,11.30
2018-10-01T05:13:33.177Z,11.22
2018-10-01T05:16:01.650Z,10.50
2018-10-01T05:18:30.105Z,9.75
2018-10-01T05:20:58.537Z,9.43
2018-10-01T05:23:27.050Z,7.83
2018-10-01T05:25:55.469Z,7.87
2018-10-01T05:28:23.944Z,8.78
2018-10-01T05:30:52.357Z,7.65
2018-10-01T05:33:20.842Z,7.15
2018-10-01T05:35:49.300Z,7.03
2018-10-01T05:38:17.717Z,6.03
2018-10-01T05:40:45.832Z,4.20
2018-10-01T05:43:14.291Z,2.90
2018-10-01T05:45:42.703Z,2.58
2018-10-01T05:48:11.156Z,2.60
2018-10-01T05:50:39.585Z,2.77
2018-10-01T05:53:08.123Z,3.75
2018-10-01T05:55:36.537Z,3.47
2018-10-01T05:58:05.030Z,2.70
2018-10-01T06:00:33.425Z,2.60
2018-10-01T06:03:01.973Z,2.83
2018-10-01T06:05:30.382Z,1.92
2018-10-01T06:07:58.812Z,1.40
2018-10-01T06:10:27.243Z,1.10
2018-10-01T06:12:55.914Z,1.02
2018-10-01T06:15:24.397Z,0.95
2018-10-01T06:17:52.957Z,0.70
2018-10-01T06:20:21.386Z,0.90
2018-10-01T06:22:49.820Z,1.10
2018-10-01T06:25:17.998Z,1.30
2018-10-01T06:27:46.378Z,1.62
2018-10-01T06:30:14.813Z,1.35
2018-10-01T06:32:43.277Z,1.57
2018-10-01T06:35:12.792Z,1.12
2018-10-01T06:37:41.244Z,1.35
2018-10-01T06:40:09.649Z,0.95
2018-10-01T06:42:38.065Z,1.00
2018-10-01T06:45:06.545Z,5.78
2018-10-01T06:47:35.025Z,10.68
2018-10-01T06:50:03.500Z,13.35
2018-10-01T06:52:31.981Z,13.72
2018-10-01T06:55:00.420Z,13.58
2018-10-01T06:57:28.846Z,13.18
2018-10-01T06:59:57.302Z,14.47
2018-10-01T07:02:25.738Z,12.33
2018-10-01T07:04:54.193Z,13.62
2018-10-01T07:07:22.628Z,12.85
2018-10-01T07:09:51.311Z,13.98
2018-10-01T07:12:19.740Z,12.68
2018-10-01T07:14:48.216Z,12.75
2018-10-01T07:17:16.700Z,11.03
2018-10-01T07:19:45.133Z,10.65
2018-10-01T07:22:13.537Z,10.80
2018-10-01T07:24:41.991Z,10.25
2018-10-01T07:27:10.397Z,10.28
2018-10-01T07:29:38.874Z,10.98
2018-10-01T07:32:07.314Z,9.33
2018-10-01T07:34:35.833Z,9.08
2018-10-01T07:37:04.275Z,7.40
2018-10-01T07:39:32.739Z,6.25
2018-10-01T07:42:01.577Z,6.47
2018-10-01T07:44:30.013Z,7.05
2018-10-01T07:46:58.445Z,7.47
2018-10-01T07:49:26.609Z,7.12
2018-10-01T07:51:55.087Z,7.33
2018-10-01T07:54:23.573Z,6.62
2018-10-01T07:56:52.046Z,6.83
2018-10-01T07:59:20.505Z,5.72
2018-10-01T08:01:48.954Z,6.25
2018-10-01T08:04:17.425Z,6.42
2018-10-01T08:06:45.868Z,6.33
2018-10-01T08:09:14.394Z,6.55
2018-10-01T08:11:42.886Z,6.12
2018-10-01T08:14:11.408Z,6.00
2018-10-01T08:16:39.832Z,5.87
2018-10-01T08:19:08.286Z,5.22
2018-10-01T08:21:36.749Z,5.65
2018-10-01T08:24:04.915Z,6.05
2018-10-01T08:26:33.397Z,5.33
2018-10-01T08:29:01.846Z,5.97
2018-10-01T08:31:30.334Z,5.72
2018-10-01T08:33:58.836Z,5.97
2018-10-01T08:36:27.252Z,6.55
2018-10-01T08:38:55.837Z,6.12
2018-10-01T08:41:24.293Z,6.30
2018-10-01T08:43:52.753Z,6.08
2018-10-01T08:46:21.176Z,6.62
2018-10-01T08:48:56.522Z,6.45
2018-10-01T08:51:33.271Z,6.20
2018-10-01T08:54:40.779Z,6.45
2018-10-01T08:57:09.350Z,5.70
2018-10-01T08:59:37.969Z,5.85
2018-10-01T09:02:06.311Z,6.47
2018-10-01T09:04:34.758Z,6.30
2018-10-01T09:07:03.469Z,6.62
2018-10-01T09:09:31.980Z,6.47
2018-10-01T09:12:00.395Z,5.03
2018-10-01T09:14:28.982Z,6.08
2018-10-01T09:16:57.421Z,6.47
2018-10-01T09:19:25.989Z,6.58
2018-10-01T09:21:54.450Z,7.10
2018-10-01T09:24:22.881Z,7.85
2018-10-01T09:26:51.350Z,7.15
2018-10-01T09:29:19.465Z,7.45
2018-10-01T09:31:47.619Z,8.08
2018-10-01T09:34:16.120Z,7.45
2018-10-01T09:36:44.551Z,8.35
2018-10-01T09:39:13.009Z,7.72
2018-10-01T09:41:41.492Z,8.85
2018-10-01T09:44:10.106Z,8.33
2018-10-01T09:46:38.482Z,8.53
2018-10-01T09:49:06.901Z,9.43
2018-10-01T09:51:35.500Z,10.55
2018-10-01T09:54:03.980Z,9.88
2018-10-01T09:56:33.131Z,10.43
2018-10-01T09:59:01.517Z,10.03
2018-10-01T10:01:29.964Z,10.05
2018-10-01T10:03:58.449Z,11.10
2018-10-01T10:06:26.857Z,11.70
2018-10-01T10:08:55.257Z,11.88
2018-10-01T10:11:23.788Z,11.83
2018-10-01T10:13:52.231Z,12.20
2018-10-01T10:16:20.875Z,11.25
2018-10-01T10:18:49.201Z,10.80
2018-10-01T10:21:17.712Z,10.90
2018-10-01T10:23:45.831Z,10.25
2018-10-01T10:26:14.352Z,9.25
2018-10-01T10:28:43.096Z,10.10
2018-10-01T10:31:11.959Z,10.08
2018-10-01T10:33:40.157Z,10.58
2018-10-01T10:36:08.649Z,9.60
2018-10-01T10:38:37.252Z,11.08
2018-10-01T10:41:05.707Z,10.93
2018-10-01T10:43:34.123Z,11.45
2018-10-01T10:46:02.617Z,11.75
2018-10-01T10:48:31.069Z,12.20
2018-10-01T10:50:59.529Z,12.28
2018-10-01T10:53:27.957Z,11.12
2018-10-01T10:55:56.422Z,11.35
2018-10-01T10:58:24.877Z,10.72
2018-10-01T11:00:53.382Z,10.08
2018-10-01T11:03:21.817Z,10.63
2018-10-01T11:05:50.280Z,10.73
2018-10-01T11:08:18.809Z,11.40
2018-10-01T11:10:47.210Z,10.40
2018-10-01T11:13:15.686Z,11.15
2018-10-01T11:15:44.130Z,10.63
2018-10-01T11:18:12.879Z,9.80
2018-10-01T11:20:41.333Z,11.68
2018-10-01T11:23:09.826Z,11.10
2018-10-01T11:25:38.459Z,10.72
2018-10-01T11:28:07.063Z,10.32
2018-10-01T11:30:35.457Z,9.80
2018-10-01T11:33:03.965Z,11.20
2018-10-01T11:35:32.369Z,11.73
2018-10-01T11:38:00.833Z,10.30
2018-10-01T11:40:29.292Z,10.50
2018-10-01T11:42:57.738Z,10.05
2018-10-01T11:45:26.201Z,10.15
2018-10-01T11:47:54.663Z,11.15
2018-10-01T11:50:23.138Z,11.75
2018-10-01T11:52:51.593Z,10.40
2018-10-01T11:55:20.055Z,11.05
2018-10-01T11:57:49.033Z,10.60
2018-10-01T12:00:18.126Z,11.50
2018-10-01T12:02:47.016Z,10.90
2018-10-01T12:05:15.476Z,11.30
2018-10-01T12:07:44.237Z,11.18
2018-10-01T12:10:12.797Z,11.88
2018-10-01T12:12:41.178Z,10.68
2018-10-01T12:15:09.681Z,11.50
2018-10-01T12:17:38.140Z,11.68
2018-10-01T12:20:07.002Z,12.80
2018-10-01T12:22:35.476Z,12.07
2018-10-01T12:25:03.934Z,11.85
2018-10-01T12:27:32.457Z,12.73
2018-10-01T12:30:01.066Z,12.45
2018-10-01T12:32:29.557Z,11.90
2018-10-01T12:34:58.029Z,13.32
2018-10-01T12:37:26.506Z,14.58
2018-10-01T12:39:54.920Z,12.75
2018-10-01T12:42:23.432Z,12.55
2018-10-01T12:44:51.861Z,12.45
2018-10-01T12:47:20.308Z,14.28
2018-10-01T12:49:48.432Z,14.60
2018-10-01T12:52:16.777Z,12.70
2018-10-01T12:54:45.215Z,13.30
2018-10-01T12:57:13.862Z,12.65
2018-10-01T12:59:42.396Z,13.08
2018-10-01T13:02:10.749Z,12.85
2018-10-01T13:04:39.197Z,12.65
2018-10-01T13:07:07.312Z,13.08
2018-10-01T13:09:35.465Z,13.28
2018-10-01T13:12:03.935Z,13.70
2018-10-01T13:14:32.361Z,13.35
2018-10-01T13:17:00.838Z,12.03
2018-10-01T13:19:29.264Z,14.00
2018-10-01T13:21:57.673Z,12.63
2018-10-01T13:24:26.233Z,13.43
2018-10-01T13:26:54.638Z,13.22
2018-10-01T13:29:23.113Z,14.28
2018-10-01T13:31:51.318Z,12.95
2018-10-01T13:34:19.740Z,14.45
2018-10-01T13:36:48.289Z,14.50
2018-10-01T13:39:16.706Z,14.28
2018-10-01T13:41:44.840Z,15.00
2018-10-01T13:44:13.334Z,14.98
2018-10-01T13:46:41.762Z,13.70
2018-10-01T13:49:10.228Z,13.50
2018-10-01T13:51:38.715Z,16.27
2018-10-01T13:54:07.295Z,14.90
2018-10-01T13:56:35.685Z,14.33
2018-10-01T13:59:03.844Z,15.30
2018-10-01T14:01:32.295Z,14.63
2018-10-01T14:04:00.501Z,14.78
2018-10-01T14:06:29.324Z,14.90
2018-10-01T14:08:58.138Z,13.95
2018-10-01T14:11:26.945Z,14.15
2018-10-01T14:13:55.625Z,14.40
2018-10-01T14:16:24.005Z,13.83
2018-10-01T14:18:52.521Z,14.35
2018-10-01T14:21:21.018Z,13.85
2018-10-01T14:23:49.520Z,14.87
2018-10-01T14:26:18.001Z,14.18
2018-10-01T14:28:46.154Z,14.60
2018-10-01T14:31:14.609Z,14.87
2018-10-01T14:33:43.230Z,15.00
2018-10-01T14:36:11.763Z,16.37
2018-10-01T14:38:40.167Z,15.35
2018-10-01T14:41:08.612Z,16.70
2018-10-01T14:43:37.149Z,16.15
2018-10-01T14:46:05.276Z,15.10
2018-10-01T14:48:33.882Z,18.20
2018-10-01T14:51:02.329Z,15.75
2018-10-01T14:53:30.802Z,16.05
2018-10-01T14:55:59.261Z,15.30
2018-10-01T14:58:27.714Z,16.07
2018-10-01T15:00:56.232Z,16.82
2018-10-01T15:03:24.641Z,16.77
2018-10-01T15:05:53.149Z,17.20
2018-10-01T15:08:21.598Z,16.32
2018-10-01T15:10:50.173Z,16.15
2018-10-01T15:13:18.597Z,15.32
2018-10-01T15:15:47.109Z,16.48
2018-10-01T15:18:15.611Z,16.32
2018-10-01T15:20:44.037Z,16.23
2018-10-01T15:23:12.199Z,15.25
2018-10-01T15:25:40.458Z,17.00
2018-10-01T15:28:08.906Z,17.02
2018-10-01T15:30:37.463Z,17.30
2018-10-01T15:33:06.034Z,18.67
2018-10-01T15:35:34.547Z,18.20
2018-10-01T15:38:02.970Z,15.80
2018-10-01T15:40:31.146Z,17.30
2018-10-01T15:42:59.597Z,18.40
2018-10-01T15:45:28.100Z,20.25
2018-10-01T15:47:56.569Z,18.47
2018-10-01T15:50:25.029Z,16.57
2018-10-01T15:52:53.516Z,16.50
2018-10-01T15:55:22.057Z,16.75
2018-10-01T15:57:50.497Z,17.57
2018-10-01T16:00:18.960Z,16.48
2018-10-01T16:02:47.413Z,16.73
2018-10-01T16:05:15.885Z,16.15
2018-10-01T16:07:44.319Z,15.00
2018-10-01T16:10:12.785Z,14.77
2018-10-01T16:12:41.225Z,14.83
2018-10-01T16:15:09.739Z,13.90
2018-10-01T16:17:38.198Z,13.78
2018-10-01T16:20:06.977Z,13.22
2018-10-01T16:22:35.462Z,13.73
2018-10-01T16:27:37.599Z,13.75
2018-10-01T16:30:06.087Z,13.83
2018-10-01T16:32:34.536Z,13.85
2018-10-01T16:35:03.019Z,13.30
2018-10-01T16:37:31.486Z,13.37
2018-10-01T16:39:59.666Z,13.20
2018-10-01T16:42:28.186Z,13.80
2018-10-01T16:44:56.728Z,14.13
2018-10-01T16:47:25.220Z,13.63
2018-10-01T16:49:53.728Z,14.17
2018-10-01T16:52:22.361Z,14.80
2018-10-01T16:54:50.789Z,14.70
2018-10-01T16:57:19.245Z,13.87
2018-10-01T16:59:47.727Z,14.85
2018-10-01T17:02:16.201Z,15.72
2018-10-01T17:04:44.656Z,17.80
2018-10-01T17:07:13.268Z,16.60
2018-10-01T17:09:41.892Z,15.93
2018-10-01T17:12:10.629Z,16.83
2018-10-01T17:14:39.230Z,15.87
2018-10-01T17:17:07.721Z,17.13
2018-10-01T17:19:36.219Z,16.27
2018-10-01T17:22:04.777Z,18.57
2018-10-01T17:24:33.214Z,17.07
2018-10-01T17:27:01.775Z,17.83
2018-10-01T17:29:30.224Z,17.07
2018-10-01T17:31:58.729Z,17.97
2018-10-01T17:34:27.188Z,17.07
2018-10-01T17:36:55.608Z,15.53
2018-10-01T17:39:24.022Z,16.93
2018-10-01T17:41:52.473Z,16.30
2018-10-01T17:44:20.905Z,15.80
2018-10-01T17:46:49.359Z,15.17
2018-10-01T17:49:17.492Z,15.53
2018-10-01T17:51:46.030Z,14.13
2018-10-01T17:54:14.508Z,14.03
2018-10-01T17:56:42.974Z,14.47
2018-10-01T17:59:11.420Z,14.60
2018-10-01T18:01:40.103Z,13.63
2018-10-01T18:04:08.579Z,13.53
2018-10-01T18:06:37.108Z,14.30
2018-10-01T18:09:08.249Z,13.98
2018-10-01T18:11:36.726Z,14.17
2018-10-01T18:14:05.170Z,13.17
2018-10-01T18:16:33.652Z,13.90
2018-10-01T18:19:02.120Z,11.63
2018-10-01T18:21:30.758Z,11.68
2018-10-01T18:23:59.195Z,12.57
2018-10-01T18:26:27.649Z,11.37
2018-10-01T18:28:56.406Z,12.37
2018-10-01T18:31:24.797Z,11.03
2018-10-01T18:33:52.965Z,10.80
2018-10-01T18:36:21.477Z,11.28
2018-10-01T18:38:50.119Z,11.73
2018-10-01T18:41:18.567Z,12.03
2018-10-01T18:43:46.801Z,13.00
2018-10-01T18:46:15.153Z,13.47
2018-10-01T18:48:43.634Z,12.73
2018-10-01T18:51:12.050Z,13.80
2018-10-01T18:53:40.544Z,13.60
2018-10-01T18:56:08.949Z,14.10
2018-10-01T18:58:37.092Z,15.40
2018-10-01T19:01:05.197Z,18.83
2018-10-01T19:03:33.699Z,17.47
2018-10-01T19:06:01.948Z,16.05
2018-10-01T19:08:30.359Z,16.93
2018-10-01T19:10:58.776Z,17.60
2018-10-01T19:13:27.253Z,17.15
2018-10-01T19:15:55.781Z,15.13
2018-10-01T19:18:24.347Z,15.15
2018-10-01T19:20:52.793Z,15.87
2018-10-01T19:23:21.229Z,14.93
2018-10-01T19:25:49.745Z,17.27
2018-10-01T19:28:18.257Z,16.73
2018-10-01T19:30:46.741Z,17.50
2018-10-01T19:33:15.231Z,17.13
2018-10-01T19:35:43.756Z,16.70
2018-10-01T19:38:11.860Z,16.87
2018-10-01T19:40:40.292Z,16.43
2018-10-01T19:43:08.770Z,15.57
2018-10-01T19:45:38.028Z,17.33
2018-10-01T19:48:07.035Z,14.90
2018-10-01T19:50:35.643Z,16.15
2018-10-01T19:53:04.124Z,16.10
2018-10-01T19:55:32.549Z,15.80
2018-10-01T19:58:01.079Z,16.30
2018-10-01T20:00:29.228Z,16.03
2018-10-01T20:02:57.750Z,15.70
2018-10-01T20:05:26.269Z,14.57
2018-10-01T20:07:54.706Z,16.13
2018-10-01T20:10:23.180Z,15.13
2018-10-01T20:12:51.609Z,15.57
2018-10-01T20:15:20.205Z,15.35
2018-10-01T20:17:48.908Z,14.60
2018-10-01T20:20:17.901Z,15.23
2018-10-01T20:22:46.351Z,14.13
2018-10-01T20:25:14.878Z,14.83
2018-10-01T20:27:43.474Z,13.77
2018-10-01T20:30:12.130Z,13.93
2018-10-01T20:32:40.774Z,13.67
2018-10-01T20:35:09.337Z,14.17
2018-10-01T20:37:37.748Z,13.97
2018-10-01T20:40:06.941Z,14.77
2018-10-01T20:42:35.353Z,14.13
2018-10-01T20:45:03.927Z,13.80
2018-10-01T20:47:32.433Z,12.82
2018-10-01T20:50:00.931Z,13.37
2018-10-01T20:52:29.835Z,13.00
2018-10-01T20:54:57.982Z,13.50
2018-10-01T20:57:26.394Z,11.97
2018-10-01T20:59:54.897Z,12.27
2018-10-01T21:02:23.372Z,12.57
2018-10-01T21:04:51.824Z,12.67
2018-10-01T21:07:20.244Z,11.23
2018-10-01T21:09:48.736Z,11.33
2018-10-01T21:12:17.182Z,10.93
2018-10-01T21:14:45.348Z,11.67
2018-10-01T21:17:13.872Z,11.30
2018-10-01T21:19:42.101Z,10.37
2018-10-01T21:22:10.198Z,10.17
2018-10-01T21:24:38.660Z,10.67
2018-10-01T21:27:07.357Z,10.33
2018-10-01T21:29:35.829Z,10.97
2018-10-01T21:32:04.477Z,10.27
2018-10-01T21:34:32.933Z,11.33
2018-10-01T21:37:01.378Z,10.73
2018-10-01T21:39:52.138Z,12.40
2018-10-01T21:42:20.993Z,11.50
2018-10-01T21:44:49.443Z,10.60
2018-10-01T21:47:17.889Z,10.77
2018-10-01T21:49:46.300Z,10.10
2018-10-01T21:52:14.749Z,11.03
2018-10-01T21:54:43.180Z,10.23
2018-10-01T21:57:11.625Z,10.07
2018-10-01T21:59:40.069Z,9.47
2018-10-01T22:02:08.577Z,9.63
2018-10-01T22:04:37.039Z,10.07
2018-10-01T22:07:05.208Z,11.37
2018-10-01T22:09:33.642Z,10.77
2018-10-01T22:12:02.121Z,13.03
2018-10-01T22:14:30.554Z,10.53
2018-10-01T22:16:59.022Z,11.87
2018-10-01T22:19:27.483Z,12.27
2018-10-01T22:21:55.966Z,11.33
2018-10-01T22:24:24.433Z,11.13
2018-10-01T22:26:52.912Z,12.03
2018-10-01T22:29:21.441Z,12.13
2018-10-01T22:31:49.868Z,10.93
2018-10-01T22:34:18.337Z,12.10
2018-10-01T22:36:46.822Z,11.23
2018-10-01T22:39:15.229Z,11.13
2018-10-01T22:41:43.753Z,10.73
2018-10-01T22:44:12.173Z,12.17
2018-10-01T22:46:40.655Z,11.67
2018-10-01T22:49:09.094Z,11.40
2018-10-01T22:51:37.589Z,11.07
2018-10-01T22:54:06.153Z,10.67
2018-10-01T22:56:34.652Z,11.53
2018-10-01T22:59:03.149Z,10.40
2018-10-01T23:01:31.610Z,10.27
2018-10-01T23:04:00.045Z,10.57
2018-10-01T23:06:28.549Z,10.20
2018-10-01T23:08:56.969Z,10.23
2018-10-01T23:11:25.410Z,9.90
2018-10-01T23:13:53.828Z,9.27
2018-10-01T23:16:22.391Z,8.17
2018-10-01T23:18:50.821Z,8.53
2018-10-01T23:21:19.246Z,6.97
2018-10-01T23:23:47.721Z,6.23
2018-10-01T23:26:17.117Z,6.33
2018-10-01T23:28:45.607Z,5.70
2018-10-01T23:31:13.740Z,5.90
2018-10-01T23:33:42.189Z,5.13
2018-10-01T23:36:10.639Z,5.73
2018-10-01T23:38:39.258Z,6.00
2018-10-01T23:41:07.358Z,5.77
2018-10-01T23:43:35.800Z,6.10
2018-10-01T23:46:04.477Z,5.53
2018-10-01T23:48:33.092Z,5.90
2018-10-01T23:51:01.493Z,5.57
2018-10-01T23:53:29.937Z,5.80
2018-10-01T23:55:58.477Z,5.63
2018-10-01T23:58:26.931Z,5.10
